< < Back
Terminal Aerodrome Forecast


Current Version              Previous Versions:   1  2  3  4  5  6  7  8  9  

Terminal Aerodrome Forecast

189
FTAK31 PAJN 212300
TAFAGS
TAF
PAGS 212326Z 2200/2224 31005KT P6SM -SHRA BKN060 BKN070 OVC090
     FM220500 06011G19KT P6SM -RA BKN035 OVC040 WS020/10030KT
     FM221000 03014G22KT P6SM -RA BKN035 OVC040 WS020/11035KT
      AMD NOT SKED=

Latest METAR

912
SAUS70 KWBC 221000 RRD
MTRAGS
METAR KAGS 220953Z AUTO 00000KT 10SM CLR 07/05 A3002 RMK AO2 SLP164
T00670050


USA.gov is the U.S. government's official web portal to all federal, state and local government web resources and services.